createdAt,value
2019-05-18T00:01:59.096Z,99.90
2019-05-18T00:05:02.628Z,99.90
2019-05-18T00:08:06.125Z,99.90
2019-05-18T00:11:09.619Z,99.90
2019-05-18T00:14:13.074Z,99.90
2019-05-18T00:17:24.935Z,99.90
2019-05-18T00:20:21.811Z,99.90
2019-05-18T00:23:25.296Z,99.90
2019-05-18T00:26:28.780Z,99.90
2019-05-18T00:29:32.233Z,99.90
2019-05-18T00:32:35.786Z,99.90
2019-05-18T00:35:39.249Z,99.90
2019-05-18T00:38:42.732Z,99.90
2019-05-18T00:41:46.231Z,99.90
2019-05-18T00:44:49.738Z,99.90
2019-05-18T00:47:54.922Z,99.90
2019-05-18T00:50:58.410Z,99.90
2019-05-18T00:54:01.957Z,99.90
2019-05-18T00:57:05.414Z,99.90
2019-05-18T01:00:09.912Z,99.90
2019-05-18T01:03:13.366Z,99.90
2019-05-18T01:06:16.857Z,99.90
2019-05-18T01:09:20.390Z,99.90
2019-05-18T01:12:23.942Z,99.90
2019-05-18T01:15:27.469Z,99.90
2019-05-18T01:18:30.960Z,99.90
2019-05-18T01:21:34.422Z,99.90
2019-05-18T01:24:37.920Z,99.90
2019-05-18T01:27:42.245Z,99.90
2019-05-18T01:30:46.172Z,99.90
2019-05-18T01:33:49.629Z,99.90
2019-05-18T01:36:53.261Z,99.90
2019-05-18T01:39:56.721Z,99.90
2019-05-18T01:43:00.205Z,99.90
2019-05-18T01:46:03.806Z,99.90
2019-05-18T01:49:07.303Z,99.90
2019-05-18T01:52:10.748Z,99.90
2019-05-18T01:55:15.913Z,99.90
2019-05-18T01:58:19.397Z,99.90
2019-05-18T02:01:22.866Z,99.90
2019-05-18T02:04:26.353Z,99.90
2019-05-18T02:07:29.816Z,99.90
2019-05-18T02:10:33.448Z,99.90
2019-05-18T02:13:36.908Z,99.90
2019-05-18T02:16:40.396Z,99.90
2019-05-18T02:19:43.885Z,99.90
2019-05-18T02:22:47.341Z,99.90
2019-05-18T02:25:50.821Z,99.90
2019-05-18T02:28:54.422Z,99.90
2019-05-18T02:31:57.900Z,99.90
2019-05-18T02:35:01.384Z,99.90
2019-05-18T02:38:17.231Z,99.90
2019-05-18T02:41:20.824Z,99.90
2019-05-18T02:44:24.380Z,99.90
2019-05-18T02:47:27.867Z,99.90
2019-05-18T02:50:31.359Z,99.90
2019-05-18T02:53:34.924Z,99.90
2019-05-18T02:56:38.375Z,99.90
2019-05-18T02:59:41.858Z,99.90
2019-05-18T03:02:45.313Z,99.90
2019-05-18T03:05:48.791Z,99.90
2019-05-18T03:08:52.390Z,99.90
2019-05-18T03:11:56.007Z,99.90
2019-05-18T03:14:59.582Z,99.90
2019-05-18T03:18:03.108Z,99.90
2019-05-18T03:21:06.597Z,99.90
2019-05-18T03:24:10.075Z,99.90
2019-05-18T03:27:13.613Z,99.90
2019-05-18T03:30:17.278Z,99.90
2019-05-18T03:33:20.764Z,99.90
2019-05-18T03:36:24.239Z,99.90
2019-05-18T03:39:27.716Z,99.90
2019-05-18T03:42:31.182Z,99.90
2019-05-18T03:45:34.673Z,99.90
2019-05-18T03:48:38.128Z,99.90
2019-05-18T03:51:41.620Z,99.90
2019-05-18T03:54:45.081Z,99.90
2019-05-18T03:57:48.553Z,99.90
2019-05-18T04:00:52.046Z,99.90
2019-05-18T04:03:55.531Z,99.90
2019-05-18T04:06:59.089Z,99.90
2019-05-18T04:10:02.984Z,99.90
2019-05-18T04:13:06.464Z,99.90
2019-05-18T04:16:09.921Z,99.90
2019-05-18T04:19:13.429Z,99.90
2019-05-18T04:22:16.914Z,99.90
2019-05-18T04:25:20.369Z,99.90
2019-05-18T04:28:23.853Z,99.90
2019-05-18T04:31:31.677Z,99.90
2019-05-18T04:34:32.595Z,99.90
2019-05-18T04:37:36.216Z,99.90
2019-05-18T04:40:39.712Z,99.90
2019-05-18T04:43:43.194Z,99.90
2019-05-18T04:46:46.659Z,99.90
2019-05-18T04:50:04.534Z,99.90
2019-05-18T04:52:55.420Z,99.90
2019-05-18T04:55:59.293Z,99.90
2019-05-18T04:59:02.787Z,99.90
2019-05-18T05:02:06.339Z,99.90
2019-05-18T05:05:10.031Z,99.90
2019-05-18T05:08:13.561Z,99.90
2019-05-18T05:11:17.125Z,99.90
2019-05-18T05:14:20.641Z,99.90
2019-05-18T05:17:24.138Z,99.90
2019-05-18T05:20:27.709Z,99.90
2019-05-18T05:23:31.233Z,99.90
2019-05-18T05:26:34.791Z,99.90
2019-05-18T05:29:38.354Z,99.90
2019-05-18T05:32:41.813Z,99.90
2019-05-18T05:35:45.300Z,99.90
2019-05-18T05:38:48.769Z,99.90
2019-05-18T05:41:52.330Z,99.80
2019-05-18T05:44:55.817Z,93.90
2019-05-18T05:47:59.308Z,87.30
2019-05-18T05:51:02.760Z,86.80
2019-05-18T05:54:06.304Z,82.20
2019-05-18T05:57:09.768Z,79.20
2019-05-18T06:00:13.622Z,75.70
2019-05-18T06:03:17.085Z,70.60
2019-05-18T06:06:23.087Z,67.10
2019-05-18T06:09:25.753Z,64.80
2019-05-18T06:12:29.241Z,63.50
2019-05-18T06:15:32.720Z,63.40
2019-05-18T06:18:36.202Z,60.20
2019-05-18T06:21:39.824Z,58.20
2019-05-18T06:24:43.313Z,57.00
2019-05-18T06:27:46.790Z,56.40
2019-05-18T06:30:50.344Z,55.40
2019-05-18T06:33:53.841Z,55.40
2019-05-18T06:36:57.305Z,56.50
2019-05-18T06:40:00.861Z,57.50
2019-05-18T06:43:04.446Z,59.50
2019-05-18T06:46:08.005Z,59.40
2019-05-18T06:49:11.591Z,59.90
2019-05-18T06:52:15.072Z,60.10
2019-05-18T06:55:18.564Z,59.90
2019-05-18T06:58:22.805Z,59.50
2019-05-18T07:01:26.261Z,59.00
2019-05-18T07:04:29.752Z,58.10
2019-05-18T07:07:33.205Z,55.80
2019-05-18T07:10:36.693Z,54.30
2019-05-18T07:13:40.155Z,54.00
2019-05-18T07:16:43.652Z,54.00
2019-05-18T07:19:47.117Z,54.10
2019-05-18T07:22:50.600Z,54.60
2019-05-18T07:25:54.107Z,55.10
2019-05-18T07:28:57.595Z,54.70
2019-05-18T07:32:01.111Z,54.40
2019-05-18T07:35:05.277Z,54.50
2019-05-18T07:38:08.773Z,54.80
2019-05-18T07:41:12.273Z,54.40
2019-05-18T07:44:15.776Z,54.20
2019-05-18T07:47:19.320Z,54.80
2019-05-18T07:50:22.813Z,55.00
2019-05-18T07:53:26.269Z,55.00
2019-05-18T07:56:29.828Z,54.60
2019-05-18T07:59:33.292Z,54.70
2019-05-18T08:02:36.781Z,53.90
2019-05-18T08:05:40.265Z,54.10
2019-05-18T08:08:43.725Z,55.30
2019-05-18T08:11:47.203Z,54.60
2019-05-18T08:14:50.690Z,53.90
2019-05-18T08:17:54.184Z,54.30
2019-05-18T08:20:57.710Z,54.40
2019-05-18T08:24:01.265Z,53.80
2019-05-18T08:27:04.757Z,51.90
2019-05-18T08:30:08.814Z,55.70
2019-05-18T08:33:12.338Z,54.20
2019-05-18T08:36:15.794Z,52.00
2019-05-18T08:39:19.355Z,52.90
2019-05-18T08:42:22.813Z,54.30
2019-05-18T08:45:26.311Z,55.60
2019-05-18T08:48:29.860Z,56.80
2019-05-18T08:51:33.392Z,56.50
2019-05-18T08:54:36.877Z,57.10
2019-05-18T08:57:40.408Z,56.40
2019-05-18T09:00:43.897Z,56.00
2019-05-18T09:03:47.426Z,52.10
2019-05-18T09:06:51.290Z,49.50
2019-05-18T09:09:54.828Z,50.00
2019-05-18T09:12:58.316Z,50.00
2019-05-18T09:16:01.785Z,50.90
2019-05-18T09:19:05.343Z,52.90
2019-05-18T09:22:22.558Z,52.50
2019-05-18T09:25:14.328Z,52.40
2019-05-18T09:28:18.225Z,51.00
2019-05-18T09:31:21.773Z,54.60
2019-05-18T09:34:25.225Z,54.20
2019-05-18T09:37:28.722Z,54.40
2019-05-18T09:40:32.182Z,55.20
2019-05-18T09:43:35.740Z,55.60
2019-05-18T09:46:39.225Z,58.40
2019-05-18T09:49:42.763Z,59.70
2019-05-18T09:52:46.682Z,60.20
2019-05-18T09:55:50.238Z,58.00
2019-05-18T09:58:53.799Z,60.40
2019-05-18T10:01:57.281Z,58.50
2019-05-18T10:05:00.852Z,59.60
2019-05-18T10:08:04.450Z,59.60
2019-05-18T10:11:07.929Z,59.80
2019-05-18T10:14:11.426Z,59.70
2019-05-18T10:17:14.945Z,59.10
2019-05-18T10:20:18.688Z,59.80
2019-05-18T10:23:22.284Z,61.60
2019-05-18T10:26:25.775Z,63.40
2019-05-18T10:29:29.316Z,61.80
2019-05-18T10:32:32.882Z,63.30
2019-05-18T10:35:36.342Z,64.50
2019-05-18T10:38:39.914Z,68.00
2019-05-18T10:41:43.538Z,69.10
2019-05-18T10:44:46.989Z,66.80
2019-05-18T10:47:50.477Z,70.00
2019-05-18T10:50:53.947Z,70.90
2019-05-18T10:53:57.422Z,69.80
2019-05-18T10:57:00.907Z,70.70
2019-05-18T11:00:07.516Z,70.40
2019-05-18T11:03:11.029Z,67.90
2019-05-18T11:06:14.567Z,73.90
2019-05-18T11:09:18.129Z,72.60
2019-05-18T11:12:21.573Z,74.30
2019-05-18T11:15:25.252Z,72.10
2019-05-18T11:18:30.335Z,73.30
2019-05-18T11:21:33.980Z,75.10
2019-05-18T11:24:37.512Z,76.20
2019-05-18T11:27:41.068Z,80.40
2019-05-18T11:30:44.519Z,78.20
2019-05-18T11:33:48.029Z,79.10
2019-05-18T11:36:51.543Z,76.80
2019-05-18T11:39:55.025Z,78.40
2019-05-18T11:42:58.489Z,86.20
2019-05-18T11:46:01.990Z,82.30
2019-05-18T11:49:05.442Z,80.20
2019-05-18T11:52:09.073Z,80.60
2019-05-18T11:55:13.929Z,82.40
2019-05-18T11:58:17.426Z,85.80
2019-05-18T12:01:20.891Z,86.50
2019-05-18T12:04:24.447Z,92.10
2019-05-18T12:07:27.897Z,90.10
2019-05-18T12:10:31.466Z,88.40
2019-05-18T12:13:34.990Z,86.00
2019-05-18T12:16:38.497Z,88.90
2019-05-18T12:19:42.025Z,85.10
2019-05-18T12:22:45.512Z,85.20
2019-05-18T12:25:50.720Z,85.20
2019-05-18T12:28:54.408Z,86.90
2019-05-18T12:31:57.973Z,84.90
2019-05-18T12:35:01.490Z,83.80
2019-05-18T12:38:05.041Z,82.50
2019-05-18T12:41:10.093Z,82.30
2019-05-18T12:44:13.577Z,85.10
2019-05-18T12:47:17.101Z,79.90
2019-05-18T12:50:22.496Z,78.80
2019-05-18T12:53:25.953Z,83.70
2019-05-18T12:56:29.444Z,79.70
2019-05-18T12:59:32.926Z,82.50
2019-05-18T13:02:36.600Z,80.80
2019-05-18T13:05:40.107Z,90.00
2019-05-18T13:08:43.624Z,87.50
2019-05-18T13:11:47.165Z,86.50
2019-05-18T13:14:50.681Z,83.50
2019-05-18T13:17:57.276Z,81.70
2019-05-18T13:21:00.777Z,80.50
2019-05-18T13:24:04.344Z,86.10
2019-05-18T13:27:07.800Z,84.80
2019-05-18T13:30:13.302Z,83.80
2019-05-18T13:33:18.789Z,82.20
2019-05-18T13:36:22.299Z,83.90
2019-05-18T13:39:25.758Z,83.30
2019-05-18T13:42:29.235Z,80.40
2019-05-18T13:45:32.876Z,80.70
2019-05-18T13:48:36.334Z,80.70
2019-05-18T13:51:39.894Z,78.60
2019-05-18T13:54:43.354Z,79.80
2019-05-18T13:57:46.842Z,81.70
2019-05-18T14:00:50.402Z,83.80
2019-05-18T14:03:53.928Z,81.40
2019-05-18T14:06:57.409Z,81.20
2019-05-18T14:10:00.910Z,84.00
2019-05-18T14:13:04.364Z,79.20
2019-05-18T14:16:07.925Z,80.00
2019-05-18T14:19:11.456Z,79.20
2019-05-18T14:22:14.947Z,81.00
2019-05-18T14:25:20.182Z,83.40
2019-05-18T14:28:24.129Z,82.70
2019-05-18T14:31:27.587Z,80.90
2019-05-18T14:34:31.214Z,82.20
2019-05-18T14:37:34.908Z,84.50
2019-05-18T14:40:38.426Z,83.70
2019-05-18T14:43:41.913Z,83.10
2019-05-18T14:46:45.381Z,82.10
2019-05-18T14:49:48.877Z,82.70
2019-05-18T14:52:52.558Z,84.00
2019-05-18T14:55:56.060Z,86.40
2019-05-18T14:58:59.564Z,84.40
2019-05-18T15:02:03.088Z,85.80
2019-05-18T15:05:08.313Z,84.60
2019-05-18T15:08:11.988Z,83.80
2019-05-18T15:11:15.544Z,82.80
2019-05-18T15:14:19.029Z,81.50
2019-05-18T15:17:22.521Z,82.50
2019-05-18T15:20:26.056Z,79.30
2019-05-18T15:23:29.538Z,79.00
2019-05-18T15:26:33.084Z,78.80
2019-05-18T15:29:36.578Z,78.90
2019-05-18T15:32:40.117Z,79.40
2019-05-18T15:35:43.804Z,81.00
2019-05-18T15:38:47.333Z,80.00
2019-05-18T15:41:50.821Z,78.10
2019-05-18T15:44:54.269Z,76.80
2019-05-18T15:47:57.760Z,77.50
2019-05-18T15:51:01.258Z,80.40
2019-05-18T15:54:04.948Z,85.00
2019-05-18T15:57:08.425Z,84.10
2019-05-18T16:00:12.524Z,86.90
2019-05-18T16:03:19.017Z,88.60
2019-05-18T16:06:22.508Z,87.90
2019-05-18T16:09:26.106Z,87.50
2019-05-18T16:12:29.634Z,85.20
2019-05-18T16:15:33.196Z,85.40
2019-05-18T16:18:36.689Z,85.10
2019-05-18T16:21:40.145Z,83.40
2019-05-18T16:24:43.628Z,83.80
2019-05-18T16:27:47.174Z,85.00
2019-05-18T16:30:50.680Z,85.80
2019-05-18T16:33:54.161Z,85.80
2019-05-18T16:37:00.668Z,87.20
2019-05-18T16:40:02.889Z,88.20
2019-05-18T16:43:06.376Z,86.90
2019-05-18T16:46:09.901Z,88.90
2019-05-18T16:49:13.469Z,90.10
2019-05-18T16:52:17.056Z,90.80
2019-05-18T16:55:20.725Z,93.30
2019-05-18T16:58:25.154Z,94.40
2019-05-18T17:01:28.617Z,95.80
2019-05-18T17:04:32.109Z,96.50
2019-05-18T17:07:35.836Z,97.80
2019-05-18T17:10:39.289Z,98.00
2019-05-18T17:13:42.785Z,98.40
2019-05-18T17:16:46.242Z,99.70
2019-05-18T17:19:49.803Z,99.90
2019-05-18T17:22:53.349Z,99.90
2019-05-18T17:25:56.892Z,99.90
2019-05-18T17:29:00.345Z,99.90
2019-05-18T17:32:03.904Z,99.90
2019-05-18T17:35:08.093Z,99.90
2019-05-18T17:38:11.665Z,99.90
2019-05-18T17:41:15.188Z,99.90
2019-05-18T17:44:19.183Z,99.90
2019-05-18T17:47:22.720Z,99.90
2019-05-18T17:50:26.859Z,99.90
2019-05-18T17:53:30.353Z,99.90
2019-05-18T17:56:33.825Z,99.90
2019-05-18T17:59:37.320Z,99.90
2019-05-18T18:02:41.156Z,99.90
2019-05-18T18:05:44.673Z,99.90
2019-05-18T18:08:48.173Z,99.90
2019-05-18T18:11:51.636Z,99.90
2019-05-18T18:14:55.116Z,99.90
2019-05-18T18:17:58.585Z,99.90
2019-05-18T18:21:02.083Z,99.90
2019-05-18T18:24:05.768Z,99.90
2019-05-18T18:27:24.023Z,99.90
2019-05-18T18:30:15.240Z,99.90
2019-05-18T18:33:18.697Z,99.90
2019-05-18T18:36:22.177Z,99.90
2019-05-18T18:39:25.703Z,99.90
2019-05-18T18:42:29.189Z,99.90
2019-05-18T18:45:32.753Z,99.90
2019-05-18T18:48:36.240Z,99.90
2019-05-18T18:51:39.721Z,99.90
2019-05-18T18:54:43.370Z,99.90
2019-05-18T18:57:46.864Z,99.90
2019-05-18T19:00:50.317Z,99.90
2019-05-18T19:03:53.805Z,99.90
2019-05-18T19:06:57.260Z,99.90
2019-05-18T19:10:00.788Z,99.90
2019-05-18T19:13:04.241Z,99.90
2019-05-18T19:16:07.725Z,99.90
2019-05-18T19:19:11.254Z,99.90
2019-05-18T19:22:14.735Z,99.90
2019-05-18T19:25:18.668Z,99.90
2019-05-18T19:28:22.125Z,99.90
2019-05-18T19:31:25.621Z,99.90
2019-05-18T19:34:29.081Z,99.90
2019-05-18T19:37:32.658Z,99.90
2019-05-18T19:40:36.184Z,99.90
2019-05-18T19:43:39.731Z,99.90
2019-05-18T19:46:43.214Z,99.90
2019-05-18T19:49:46.682Z,99.90
2019-05-18T19:52:50.234Z,99.90
2019-05-18T19:55:53.713Z,99.90
2019-05-18T19:58:57.169Z,99.90
2019-05-18T20:02:00.651Z,99.90
2019-05-18T20:05:08.473Z,99.90
2019-05-18T20:08:11.567Z,99.90
2019-05-18T20:11:15.090Z,99.90
2019-05-18T20:14:18.665Z,99.90
2019-05-18T20:17:22.204Z,99.90
2019-05-18T20:20:25.684Z,99.90
2019-05-18T20:23:29.250Z,99.90
2019-05-18T20:26:32.753Z,99.90
2019-05-18T20:29:36.349Z,99.90
2019-05-18T20:32:39.841Z,99.90
2019-05-18T20:35:43.360Z,99.90
2019-05-18T20:38:46.930Z,99.90
2019-05-18T20:41:50.382Z,99.90
2019-05-18T20:44:53.869Z,99.90
2019-05-18T20:47:57.396Z,99.90
2019-05-18T20:51:00.907Z,99.90
2019-05-18T20:54:04.438Z,99.90
2019-05-18T20:57:07.998Z,99.90
2019-05-18T21:00:13.088Z,99.90
2019-05-18T21:03:16.588Z,99.90
2019-05-18T21:06:20.105Z,99.90
2019-05-18T21:09:23.691Z,99.90
2019-05-18T21:12:27.206Z,99.90
2019-05-18T21:15:30.697Z,99.90
2019-05-18T21:18:34.169Z,99.90
2019-05-18T21:21:37.621Z,99.90
2019-05-18T21:24:41.104Z,99.90
2019-05-18T21:27:44.553Z,99.90
2019-05-18T21:30:48.041Z,99.90
2019-05-18T21:33:51.498Z,99.90
2019-05-18T21:36:54.993Z,99.90
2019-05-18T21:39:58.539Z,99.90
2019-05-18T21:43:02.027Z,99.90
2019-05-18T21:46:05.508Z,99.90
2019-05-18T21:49:09.029Z,99.90
2019-05-18T21:52:12.520Z,99.90
2019-05-18T21:55:16.112Z,99.90
2019-05-18T21:58:19.606Z,99.90
2019-05-18T22:01:23.211Z,99.90
2019-05-18T22:04:26.836Z,99.90
2019-05-18T22:07:30.397Z,99.90
2019-05-18T22:10:33.961Z,99.90
2019-05-18T22:13:40.472Z,99.90
2019-05-18T22:16:43.950Z,99.90
2019-05-18T22:19:47.473Z,99.90
2019-05-18T22:22:50.968Z,99.90
2019-05-18T22:25:57.048Z,99.90
2019-05-18T22:28:59.684Z,99.90
2019-05-18T22:32:03.211Z,99.90
2019-05-18T22:35:07.206Z,99.90
2019-05-18T22:38:10.676Z,99.90
2019-05-18T22:41:14.196Z,99.90
2019-05-18T22:44:17.691Z,99.90
2019-05-18T22:47:21.149Z,99.90
2019-05-18T22:50:24.704Z,99.90
2019-05-18T22:53:28.239Z,99.90
2019-05-18T22:56:31.793Z,99.90
2019-05-18T22:59:35.237Z,99.90
2019-05-18T23:02:38.746Z,99.90
2019-05-18T23:05:42.268Z,99.90
2019-05-18T23:08:45.746Z,99.90
2019-05-18T23:11:49.236Z,99.90
2019-05-18T23:14:52.888Z,99.90
2019-05-18T23:17:56.352Z,99.90
2019-05-18T23:20:59.841Z,99.90
2019-05-18T23:24:03.536Z,99.90
2019-05-18T23:27:07.037Z,99.90
2019-05-18T23:30:11.309Z,99.90
2019-05-18T23:33:14.965Z,99.90
2019-05-18T23:36:18.468Z,99.90
2019-05-18T23:39:22.011Z,99.90
2019-05-18T23:42:25.575Z,99.90
2019-05-18T23:45:29.031Z,99.90
2019-05-18T23:48:32.508Z,99.90
2019-05-18T23:51:35.997Z,99.90
2019-05-18T23:54:39.449Z,99.90
2019-05-18T23:57:42.936Z,99.90
